Time;durP1;ratioP1;P1;durP2;ratioP2;P2;SDS_P1;SDS_P2;PMS_P1;PMS_P2;Temp;Humidity;BMP_temperature;BMP_pressure;BME280_temperature;BME280_humidity;BME280_pressure;Samples;Min_cycle;Max_cycle;Signal;HPM_P1;HPM_P2
2023/06/29 00:02:11;;;;;;;6.28;2.60;;;;;;;19.73;93.13;101212.34;5078168;28;20028;-71
2023/06/29 00:04:37;;;;;;;7.60;2.63;;;;;;;19.45;93.26;101164.97;5037639;28;20033;-72
2023/06/29 00:07:03;;;;;;;6.28;2.65;;;;;;;19.79;93.30;101212.16;5046626;28;20368;-71
2023/06/29 00:09:28;;;;;;;12.02;2.70;;;;;;;19.81;93.73;101209.22;5043787;28;20053;-72
2023/06/29 00:11:54;;;;;;;6.40;2.45;;;;;;;19.82;93.69;101203.47;5056359;28;20494;-71
2023/06/29 00:14:20;;;;;;;6.35;2.38;;;;;;;19.82;93.87;101198.03;5060581;28;20091;-72
2023/06/29 00:16:45;;;;;;;7.57;3.03;;;;;;;19.84;94.16;101203.25;5043113;28;20021;-72
2023/06/29 00:19:14;;;;;;;9.07;2.67;;;;;;;19.84;94.21;101197.78;5076053;28;20036;-72
2023/06/29 00:21:40;;;;;;;4.55;2.63;;;;;;;19.85;94.32;101196.69;5060764;28;20029;-72
2023/06/29 00:24:06;;;;;;;7.47;2.70;;;;;;;19.85;94.46;101197.53;5042750;28;20043;-72
2023/06/29 00:26:31;;;;;;;6.60;2.65;;;;;;;19.87;94.59;101191.81;5043167;28;20029;-72
2023/06/29 00:28:57;;;;;;;9.82;3.00;;;;;;;19.81;94.51;101176.44;5059906;28;20128;-72
2023/06/29 00:31:24;;;;;;;7.43;2.45;;;;;;;19.79;94.57;101173.13;5076343;28;20032;-72
2023/06/29 00:33:49;;;;;;;6.80;2.30;;;;;;;19.92;94.53;101183.69;5075945;28;20571;-72
2023/06/29 00:36:15;;;;;;;4.95;2.42;;;;;;;19.91;94.61;101180.13;5042689;28;20078;-72
2023/06/29 00:38:40;;;;;;;8.68;2.72;;;;;;;19.88;94.57;101161.50;5054754;28;20029;-72
2023/06/29 00:41:06;;;;;;;5.68;2.78;;;;;;;20.02;94.68;101181.09;5055460;28;20037;-72
2023/06/29 00:43:31;;;;;;;8.80;2.70;;;;;;;20.04;94.68;101178.94;5063458;28;20065;-71
2023/06/29 00:45:57;;;;;;;9.27;2.90;;;;;;;20.06;94.65;101176.75;5042678;28;20039;-72
2023/06/29 00:48:22;;;;;;;7.43;2.80;;;;;;;20.12;94.60;101181.22;5042007;28;20024;-71
2023/06/29 00:50:48;;;;;;;4.95;2.53;;;;;;;20.17;94.37;101175.00;5068342;28;20009;-71
2023/06/29 00:53:13;;;;;;;8.35;2.90;;;;;;;20.14;94.81;101179.06;5078996;28;20029;-72
2023/06/29 00:55:39;;;;;;;6.45;2.70;;;;;;;20.15;94.87;101182.63;5076604;28;20025;-72
2023/06/29 00:58:04;;;;;;;7.55;2.72;;;;;;;20.15;95.25;101171.69;5060142;28;20029;-72
2023/06/29 01:00:30;;;;;;;6.38;2.60;;;;;;;20.15;95.12;101166.22;5041948;28;20033;-71
2023/06/29 01:02:55;;;;;;;8.75;2.60;;;;;;;20.25;95.17;101180.00;5059530;28;20031;-72
2023/06/29 01:05:21;;;;;;;7.45;2.85;;;;;;;20.26;95.23;101167.19;5074559;28;20028;-72
2023/06/29 01:07:50;;;;;;;7.15;2.70;;;;;;;20.31;95.15;101169.97;5060024;28;20056;-72
2023/06/29 01:10:20;;;;;;;6.35;2.50;;;;;;;20.32;95.71;101168.91;5060161;28;20025;-72
2023/06/29 01:12:48;;;;;;;6.72;2.67;;;;;;;20.42;95.55;101163.53;5059862;28;20067;-72
2023/06/29 01:15:16;;;;;;;6.38;2.78;;;;;;;20.48;95.10;101165.25;5025582;28;20037;-72
2023/06/29 01:17:44;;;;;;;7.43;2.40;;;;;;;20.57;94.83;101154.72;5059751;28;20095;-72
2023/06/29 01:20:11;;;;;;;8.98;2.75;;;;;;;20.55;95.00;101140.47;5041912;28;20021;-72
2023/06/29 01:22:41;;;;;;;5.63;2.47;;;;;;;20.63;95.15;101145.50;5075194;28;20029;-72
2023/06/29 01:25:08;;;;;;;7.63;2.78;;;;;;;20.67;95.07;101143.91;5042002;28;20055;-72
2023/06/29 01:27:34;;;;;;;8.98;2.50;;;;;;;20.72;95.25;101140.38;5074462;28;20036;-72
2023/06/29 01:30:01;;;;;;;7.85;2.60;;;;;;;20.33;95.69;101083.94;5040803;28;20091;-72
2023/06/29 01:32:33;;;;;;;7.35;2.70;;;;;;;20.78;95.68;101142.91;5021989;28;20025;-72
2023/06/29 01:34:59;;;;;;;5.93;2.50;;;;;;;20.72;95.68;101129.44;5055010;28;20028;-72
2023/06/29 01:37:37;;;;;;;6.07;2.35;;;;;;;20.77;95.69;101133.06;5061873;28;20025;-72
2023/06/29 01:40:08;;;;;;;8.18;2.50;;;;;;;20.88;95.65;101131.22;5041679;28;20025;-71
2023/06/29 01:42:34;;;;;;;10.70;2.92;;;;;;;20.85;95.65;101131.75;5065183;28;20092;-72
2023/06/29 01:45:04;;;;;;;9.98;2.53;;;;;;;20.90;96.04;101134.53;5067984;28;20073;-72
2023/06/29 01:47:31;;;;;;;8.73;2.80;;;;;;;20.93;95.85;101139.50;5043142;28;20017;-72
2023/06/29 01:49:56;;;;;;;7.80;2.65;;;;;;;20.92;95.83;101129.63;5058764;28;20021;-72
2023/06/29 01:52:22;;;;;;;6.93;2.60;;;;;;;20.98;95.67;101131.31;5058704;28;20399;-73
2023/06/29 01:54:48;;;;;;;10.43;2.65;;;;;;;21.00;95.74;101136.53;5040904;28;20134;-71
2023/06/29 01:57:14;;;;;;;7.63;2.38;;;;;;;20.96;95.44;101127.19;5074591;28;20043;-72
2023/06/29 01:59:39;;;;;;;8.00;2.63;;;;;;;20.96;95.52;101108.03;5057815;28;20029;-71
2023/06/29 02:02:05;;;;;;;7.82;2.63;;;;;;;21.03;95.49;101125.91;5058815;28;20033;-72
2023/06/29 02:04:31;;;;;;;9.50;2.53;;;;;;;21.04;95.39;101119.34;5058136;28;20021;-72
2023/06/29 02:06:57;;;;;;;11.55;2.70;;;;;;;21.05;95.33;101120.16;5024515;28;20032;-72
2023/06/29 02:09:22;;;;;;;9.75;2.40;;;;;;;21.11;95.22;101121.84;5057971;28;20029;-72
2023/06/29 02:11:48;;;;;;;5.15;2.10;;;;;;;21.11;95.05;101119.13;5057429;28;20512;-72
2023/06/29 02:14:16;;;;;;;8.88;2.20;;;;;;;21.14;95.22;101120.50;5040072;28;20035;-71
2023/06/29 02:16:46;;;;;;;9.85;2.60;;;;;;;21.18;95.08;101127.09;5040936;28;20033;-72
2023/06/29 02:19:11;;;;;;;6.90;2.38;;;;;;;21.17;95.15;101122.72;5056812;28;20025;-72
2023/06/29 02:21:36;;;;;;;6.05;2.20;;;;;;;21.19;95.29;101123.28;5058618;28;20355;-72
2023/06/29 02:24:02;;;;;;;10.18;2.60;;;;;;;21.21;94.99;101116.44;5041002;28;20033;-72
2023/06/29 02:26:28;;;;;;;8.93;2.38;;;;;;;21.26;95.25;101118.41;5074055;28;20047;-72
2023/06/29 02:28:53;;;;;;;10.70;2.42;;;;;;;21.28;95.17;101116.22;5041335;28;20039;-72
2023/06/29 02:31:19;;;;;;;9.82;2.22;;;;;;;21.29;95.33;101118.72;5040494;28;20043;-72
2023/06/29 02:33:45;;;;;;;7.38;2.47;;;;;;;21.32;95.54;101114.59;5036746;28;20056;-72
2023/06/29 02:36:10;;;;;;;7.97;2.33;;;;;;;21.17;95.34;101092.63;5058340;28;20040;-72
2023/06/29 02:38:36;;;;;;;6.60;2.60;;;;;;;21.35;95.52;101119.59;5074061;28;20442;-72
2023/06/29 02:41:01;;;;;;;6.30;2.50;;;;;;;21.37;95.42;101113.88;5056653;28;20033;-72
2023/06/29 02:43:27;;;;;;;5.40;2.20;;;;;;;21.33;95.73;101117.09;5056312;28;20060;-72
2023/06/29 02:45:52;;;;;;;6.07;2.53;;;;;;;21.34;95.91;101112.44;5045396;28;20037;-72
2023/06/29 02:48:18;;;;;;;6.65;2.58;;;;;;;21.31;96.59;101113.78;5058294;28;20028;-71
2023/06/29 02:50:43;;;;;;;6.63;2.40;;;;;;;21.33;96.50;101113.53;5058364;28;20036;-72
2023/06/29 02:53:11;;;;;;;7.07;2.38;;;;;;;21.28;97.04;101113.50;5058447;28;20529;-72
2023/06/29 02:55:37;;;;;;;4.75;2.28;;;;;;;21.28;97.28;101113.50;5073614;28;20451;-71
2023/06/29 02:58:02;;;;;;;4.55;2.00;;;;;;;21.22;97.54;101098.94;5058779;28;20025;-72
2023/06/29 03:00:28;;;;;;;7.57;2.25;;;;;;;21.23;97.91;101106.06;5058960;28;20037;-72
2023/06/29 03:02:53;;;;;;;6.80;2.42;;;;;;;21.28;97.77;101108.00;5040146;28;20040;-71
2023/06/29 03:05:19;;;;;;;10.50;2.75;;;;;;;21.16;97.97;101093.69;5058366;28;20040;-72
2023/06/29 03:07:44;;;;;;;10.15;2.40;;;;;;;21.19;98.26;101095.91;5058537;28;20051;-72
2023/06/29 03:10:10;;;;;;;6.43;2.58;;;;;;;21.17;98.25;101085.22;5057351;28;20033;-72
2023/06/29 03:12:35;;;;;;;6.22;2.53;;;;;;;21.21;98.36;101089.09;5074111;28;20037;-72
2023/06/29 03:15:00;;;;;;;6.28;2.70;;;;;;;21.21;99.13;101088.28;5041082;28;20052;-71
2023/06/29 03:17:27;;;;;;;7.43;2.72;;;;;;;21.30;100.00;101101.19;5073960;28;20055;-71
2023/06/29 03:19:53;;;;;;;6.32;2.95;;;;;;;21.27;100.00;101098.16;5057453;28;20127;-72
2023/06/29 03:22:18;;;;;;;6.75;2.58;;;;;;;21.26;100.00;101089.13;5061863;28;20045;-72
2023/06/29 03:24:44;;;;;;;6.70;2.70;;;;;;;21.32;100.00;101092.72;5060881;28;20032;-72
2023/06/29 03:27:11;;;;;;;6.72;2.88;;;;;;;21.30;100.00;101100.38;5061559;28;20029;-72
2023/06/29 03:29:36;;;;;;;9.10;2.97;;;;;;;21.31;100.00;101089.16;5042218;28;20028;-72
2023/06/29 03:32:02;;;;;;;6.82;3.00;;;;;;;21.27;100.00;101082.56;5075552;28;20578;-72
2023/06/29 03:34:27;;;;;;;8.88;3.08;;;;;;;21.28;100.00;101091.59;5076175;28;20036;-72
2023/06/29 03:36:52;;;;;;;8.25;3.38;;;;;;;21.32;100.00;101095.44;5042376;28;20274;-72
2023/06/29 03:39:19;;;;;;;7.10;3.10;;;;;;;21.38;100.00;101088.13;5026152;28;20045;-72
2023/06/29 03:41:44;;;;;;;7.82;2.83;;;;;;;21.38;100.00;101086.22;5045912;28;20560;-73
2023/06/29 03:44:10;;;;;;;10.07;3.20;;;;;;;21.41;100.00;101074.75;5059519;28;20061;-72
2023/06/29 03:46:36;;;;;;;7.80;3.63;;;;;;;21.32;100.00;101066.19;5058800;28;20052;-71
2023/06/29 03:49:01;;;;;;;8.13;3.10;;;;;;;21.48;100.00;101085.44;5071855;28;20541;-72
2023/06/29 03:51:27;;;;;;;10.23;3.20;;;;;;;21.37;100.00;101067.34;5054793;28;20482;-72
2023/06/29 03:53:52;;;;;;;9.35;3.40;;;;;;;21.44;100.00;101085.16;5059814;28;20409;-71
2023/06/29 03:56:17;;;;;;;6.45;3.15;;;;;;;21.48;100.00;101088.19;5075790;28;20494;-71
2023/06/29 03:58:43;;;;;;;7.47;3.08;;;;;;;21.50;100.00;101081.38;5058430;28;20096;-72
2023/06/29 04:01:08;;;;;;;6.78;2.97;;;;;;;21.51;100.00;101085.75;5058979;28;20067;-72
2023/06/29 04:03:34;;;;;;;6.82;2.95;;;;;;;21.46;100.00;101072.03;5059405;28;20025;-72
2023/06/29 04:06:00;;;;;;;5.88;3.20;;;;;;;21.54;100.00;101085.22;5074909;28;20033;-72
2023/06/29 04:08:26;;;;;;;5.13;3.00;;;;;;;21.44;100.00;101063.25;5041532;28;20112;-71
2023/06/29 04:10:52;;;;;;;5.03;2.97;;;;;;;21.56;100.00;101083.03;5042998;28;20111;-70
2023/06/29 04:13:17;;;;;;;6.18;3.30;;;;;;;21.56;100.00;101076.75;5072867;28;20060;-72
2023/06/29 04:15:43;;;;;;;7.22;3.83;;;;;;;21.60;100.00;101082.53;5041703;28;20112;-72
2023/06/29 04:18:08;;;;;;;5.75;3.40;;;;;;;21.63;100.00;101076.50;5058733;28;20101;-72
2023/06/29 04:20:36;;;;;;;7.15;3.90;;;;;;;21.54;100.00;101057.84;5073842;28;20090;-68
2023/06/29 04:23:01;;;;;;;6.50;3.95;;;;;;;21.75;100.00;101083.41;5056220;28;20502;-72
2023/06/29 04:25:27;;;;;;;5.93;4.03;;;;;;;21.71;100.00;101073.25;5024739;28;20033;-72
2023/06/29 04:27:52;;;;;;;6.50;4.10;;;;;;;21.74;100.00;101083.69;5041162;28;20033;-71
2023/06/29 04:30:18;;;;;;;6.32;4.43;;;;;;;21.74;100.00;101075.47;5085026;28;20048;-72
2023/06/29 04:32:47;;;;;;;6.68;4.18;;;;;;;21.85;100.00;101079.06;5074943;28;20015;-71
2023/06/29 04:35:12;;;;;;;7.38;4.63;;;;;;;21.78;100.00;101073.81;5075967;28;20032;-72
2023/06/29 04:37:41;;;;;;;5.63;3.92;;;;;;;21.84;100.00;101072.75;5091274;28;20574;-71
2023/06/29 04:40:12;;;;;;;7.30;4.70;;;;;;;21.86;100.00;101073.31;5074013;28;20009;-72
2023/06/29 04:42:45;;;;;;;6.60;4.80;;;;;;;21.78;100.00;101076.56;5074189;28;20037;-72
2023/06/29 04:45:12;;;;;;;7.70;5.18;;;;;;;21.67;100.00;101072.97;5058313;28;20024;-71
2023/06/29 04:47:40;;;;;;;9.43;5.95;;;;;;;21.71;100.00;101084.19;5057752;28;20032;-72
2023/06/29 04:50:07;;;;;;;11.45;6.75;;;;;;;21.56;100.00;101063.06;5051377;28;20033;-71
2023/06/29 04:52:36;;;;;;;9.88;6.88;;;;;;;21.51;100.00;101063.03;5023071;28;20120;-71
2023/06/29 04:55:05;;;;;;;9.13;6.70;;;;;;;21.55;100.00;101064.13;5050934;28;20059;-71
2023/06/29 04:57:30;;;;;;;9.85;7.63;;;;;;;21.67;100.00;101077.63;5057851;28;20028;-71
2023/06/29 04:59:56;;;;;;;11.77;7.80;;;;;;;21.68;100.00;101077.34;5072502;28;20399;-72
2023/06/29 05:02:22;;;;;;;8.70;7.22;;;;;;;21.54;100.00;101052.34;5036704;28;20104;-71
2023/06/29 05:04:48;;;;;;;13.52;7.55;;;;;;;21.67;100.00;101074.88;5070188;28;20033;-71
2023/06/29 05:07:13;;;;;;;10.18;7.65;;;;;;;21.72;100.00;101069.41;5052318;28;20158;-72
2023/06/29 05:09:39;;;;;;;10.50;8.23;;;;;;;21.64;100.00;101057.06;5053521;28;20036;-72
2023/06/29 05:12:05;;;;;;;11.82;8.65;;;;;;;21.77;100.00;101064.78;5054933;28;20025;-73
2023/06/29 05:14:31;;;;;;;12.05;8.73;;;;;;;21.80;100.00;101071.66;5023165;28;20390;-73
2023/06/29 05:16:57;;;;;;;9.27;7.95;;;;;;;21.85;100.00;101065.34;5039433;28;20064;-78
2023/06/29 05:19:22;;;;;;;10.35;7.50;;;;;;;21.74;100.00;101057.09;5056762;28;20033;-73
2023/06/29 05:21:48;;;;;;;11.40;7.85;;;;;;;21.85;100.00;101070.84;5024369;28;20422;-71
2023/06/29 05:24:13;;;;;;;12.45;7.25;;;;;;;21.94;100.00;101064.56;5058750;28;20056;-71
2023/06/29 05:26:39;;;;;;;10.07;7.35;;;;;;;21.92;100.00;101064.03;5040978;28;20052;-71
2023/06/29 05:29:05;;;;;;;11.77;7.22;;;;;;;21.86;100.00;101043.19;5040593;28;20040;-71
2023/06/29 05:31:30;;;;;;;10.32;7.00;;;;;;;21.97;100.00;101061.31;5058767;28;20040;-71
2023/06/29 05:33:56;;;;;;;8.93;6.95;;;;;;;21.95;100.00;101063.50;5074066;28;20025;-71
2023/06/29 05:36:21;;;;;;;11.60;7.25;;;;;;;22.01;100.00;101061.59;5057355;28;20112;-72
2023/06/29 05:38:46;;;;;;;7.88;6.47;;;;;;;21.95;100.00;101059.91;5074412;28;20022;-71
2023/06/29 05:41:12;;;;;;;9.52;6.75;;;;;;;22.02;100.00;101066.00;5075911;28;20040;-76
2023/06/29 05:43:37;;;;;;;11.05;6.45;;;;;;;22.03;100.00;101057.50;5038852;28;20049;-69
2023/06/29 05:46:03;;;;;;;9.90;6.10;;;;;;;22.04;100.00;101058.31;5072224;28;20037;-71
2023/06/29 05:48:28;;;;;;;8.20;6.75;;;;;;;22.06;100.00;101056.13;5056353;28;20031;-71
2023/06/29 05:50:53;;;;;;;8.73;6.25;;;;;;;22.10;100.00;101061.91;5055294;28;20164;-70
2023/06/29 05:53:19;;;;;;;7.50;5.68;;;;;;;22.13;100.00;101064.09;5056437;28;20039;-71
2023/06/29 05:55:44;;;;;;;8.10;6.22;;;;;;;22.14;100.00;101058.34;5056558;28;20032;-70
2023/06/29 05:58:10;;;;;;;8.88;6.10;;;;;;;22.23;100.00;101061.41;5039238;28;20037;-70
2023/06/29 06:00:35;;;;;;;6.82;5.20;;;;;;;22.31;100.00;101060.88;5056707;28;20082;-70
2023/06/29 06:03:00;;;;;;;8.82;6.30;;;;;;;22.34;100.00;101052.09;5035947;28;20259;-70
2023/06/29 06:05:26;;;;;;;9.88;6.43;;;;;;;22.22;100.00;101043.31;5068970;28;20040;-71
2023/06/29 06:07:51;;;;;;;9.55;6.53;;;;;;;22.35;100.00;101044.69;5055111;28;20032;-72
2023/06/29 06:10:17;;;;;;;8.68;6.38;;;;;;;22.31;100.00;101041.69;5053081;28;20040;-72
2023/06/29 06:12:42;;;;;;;9.07;5.68;;;;;;;22.31;100.00;101032.63;5051946;28;20025;-72
2023/06/29 06:15:11;;;;;;;7.47;5.57;;;;;;;22.40;100.00;101048.28;5067851;28;20080;-72
2023/06/29 06:17:37;;;;;;;7.93;5.47;;;;;;;22.42;100.00;101051.59;5067262;28;20063;-72
2023/06/29 06:20:05;;;;;;;8.23;5.90;;;;;;;22.30;100.00;101041.97;5034351;28;20036;-71
2023/06/29 06:22:30;;;;;;;9.70;5.97;;;;;;;22.43;100.00;101057.88;5067203;28;20029;-72
2023/06/29 06:24:56;;;;;;;6.78;5.45;;;;;;;22.41;100.00;101060.88;5052073;28;20547;-72
2023/06/29 06:27:22;;;;;;;7.18;5.03;;;;;;;22.26;100.00;101049.91;5034439;28;20037;-71
2023/06/29 06:29:47;;;;;;;7.30;4.78;;;;;;;22.28;100.00;101058.66;5052579;28;20085;-71
2023/06/29 06:32:13;;;;;;;6.22;4.75;;;;;;;22.28;100.00;101061.41;5051905;28;20092;-71
2023/06/29 06:34:38;;;;;;;6.43;4.88;;;;;;;22.26;100.00;101061.69;5034200;28;20487;-72
2023/06/29 06:37:05;;;;;;;5.55;4.72;;;;;;;22.30;100.00;101059.22;5034307;28;20037;-72
2023/06/29 06:39:32;;;;;;;6.20;4.60;;;;;;;22.32;100.00;101062.53;5035403;28;20036;-71
2023/06/29 06:41:59;;;;;;;5.22;4.47;;;;;;;22.35;100.00;101056.50;5054083;28;20159;-72
2023/06/29 06:44:25;;;;;;;6.50;4.50;;;;;;;22.40;100.00;101059.25;5052996;28;20060;-71
2023/06/29 06:46:51;;;;;;;5.82;4.00;;;;;;;22.44;100.00;101054.84;5053469;28;20033;-71
2023/06/29 06:49:16;;;;;;;4.30;3.55;;;;;;;22.56;100.00;101053.78;5074861;28;20032;-71
2023/06/29 06:51:42;;;;;;;5.05;3.75;;;;;;;22.72;100.00;101049.97;5074826;28;20049;-70
2023/06/29 06:54:07;;;;;;;6.50;3.92;;;;;;;22.92;100.00;101055.44;5073769;28;20025;-72
2023/06/29 06:56:33;;;;;;;6.05;3.85;;;;;;;23.06;100.00;101047.47;5043736;28;20024;-73
2023/06/29 06:58:58;;;;;;;5.03;4.00;;;;;;;23.28;100.00;101052.66;5044464;28;20029;-70
2023/06/29 07:01:27;;;;;;;6.18;3.92;;;;;;;23.35;100.00;101053.19;5062190;28;20029;-72
2023/06/29 07:03:52;;;;;;;5.30;3.75;;;;;;;23.42;99.21;101048.22;5071903;28;20036;-72
2023/06/29 07:06:18;;;;;;;5.47;3.33;;;;;;;23.68;98.43;101045.44;5066637;28;20017;-71
2023/06/29 07:08:44;;;;;;;4.50;3.35;;;;;;;23.86;97.57;101047.53;5058925;28;20025;-73
2023/06/29 07:11:09;;;;;;;4.45;3.20;;;;;;;23.95;97.09;101038.72;5041580;28;20052;-72
2023/06/29 07:13:35;;;;;;;4.00;2.90;;;;;;;24.19;95.86;101049.84;5059321;28;20089;-72
2023/06/29 07:16:00;;;;;;;2.95;2.60;;;;;;;24.10;95.01;101049.59;5059859;28;20029;-71
2023/06/29 07:18:26;;;;;;;2.95;2.65;;;;;;;24.18;94.20;101049.03;5041408;28;20040;-71
2023/06/29 07:20:51;;;;;;;3.28;2.40;;;;;;;24.27;93.42;101041.81;5058458;28;20086;-72
2023/06/29 07:23:17;;;;;;;2.42;2.22;;;;;;;24.21;93.01;101051.22;5041685;28;20033;-72
2023/06/29 07:25:43;;;;;;;2.75;2.38;;;;;;;24.02;92.63;101051.03;5059712;28;20479;-70
2023/06/29 07:28:08;;;;;;;4.22;2.25;;;;;;;23.82;93.24;101018.97;5074870;28;20032;-73
2023/06/29 07:30:34;;;;;;;3.17;2.28;;;;;;;23.87;93.06;101043.69;5059410;28;20459;-76
2023/06/29 07:33:00;;;;;;;3.47;2.20;;;;;;;23.76;92.85;101049.50;5042054;28;20082;-77
2023/06/29 07:35:25;;;;;;;2.92;2.50;;;;;;;23.76;92.59;101058.56;5041897;28;20028;-75
2023/06/29 07:37:50;;;;;;;6.03;2.53;;;;;;;23.84;92.17;101046.16;5060171;28;20033;-73
2023/06/29 07:40:16;;;;;;;3.10;2.80;;;;;;;23.89;92.23;101037.91;5027261;28;20025;-72
2023/06/29 07:42:41;;;;;;;4.35;3.10;;;;;;;23.91;91.97;101036.53;5074933;28;20398;-71
2023/06/29 07:45:07;;;;;;;3.80;3.30;;;;;;;24.11;91.27;101037.53;5075576;28;20037;-74
2023/06/29 07:47:33;;;;;;;3.83;3.35;;;;;;;24.20;91.61;101040.47;5042294;28;20037;-75
2023/06/29 07:49:58;;;;;;;4.20;3.80;;;;;;;24.12;91.43;101044.66;5052921;28;20031;-75
2023/06/29 07:52:25;;;;;;;5.95;3.80;;;;;;;23.83;92.12;101000.56;5065254;28;20060;-74
2023/06/29 07:54:51;;;;;;;4.28;3.85;;;;;;;24.17;91.36;101044.59;5065122;28;20031;-72
2023/06/29 07:57:16;;;;;;;5.85;4.00;;;;;;;24.10;91.31;101022.09;5043449;28;20028;-71
2023/06/29 07:59:42;;;;;;;4.60;3.95;;;;;;;24.13;91.07;101033.34;5076688;28;20040;-71
2023/06/29 08:02:07;;;;;;;4.85;4.32;;;;;;;24.05;91.57;101039.47;5043162;28;20461;-72
2023/06/29 08:04:33;;;;;;;7.25;4.07;;;;;;;24.15;91.28;101024.84;5046099;28;20025;-75
2023/06/29 08:06:59;;;;;;;4.28;3.60;;;;;;;24.14;90.92;101014.97;5060479;28;20024;-74
2023/06/29 08:09:24;;;;;;;4.70;3.90;;;;;;;24.17;90.45;101024.53;5046020;28;20021;-75
2023/06/29 08:11:50;;;;;;;5.43;3.75;;;;;;;24.15;91.15;101022.91;5043490;28;20101;-75
2023/06/29 08:14:16;;;;;;;5.18;3.85;;;;;;;24.12;91.70;101031.72;5076894;28;20057;-76
2023/06/29 08:16:41;;;;;;;4.50;3.80;;;;;;;23.96;91.85;101032.91;5080017;28;20032;-77
2023/06/29 08:19:07;;;;;;;6.28;4.55;;;;;;;23.70;92.26;101021.22;5081257;28;20029;-74
2023/06/29 08:21:32;;;;;;;5.30;4.70;;;;;;;23.66;92.31;101034.69;5046933;28;20036;-78
2023/06/29 08:23:57;;;;;;;6.38;5.00;;;;;;;23.68;92.91;101032.50;5062640;28;20032;-82
2023/06/29 08:26:24;;;;;;;6.38;4.95;;;;;;;23.73;92.46;101036.34;5075238;28;20044;-74
2023/06/29 08:28:50;;;;;;;6.50;4.47;;;;;;;23.75;92.70;101036.88;5057587;28;20056;-74
2023/06/29 08:31:16;;;;;;;6.72;4.95;;;;;;;23.73;92.55;101037.16;5075219;28;20032;-76
2023/06/29 08:33:41;;;;;;;5.70;5.05;;;;;;;23.76;92.47;101041.28;5056817;28;20017;-73
2023/06/29 08:36:07;;;;;;;7.38;5.70;;;;;;;23.79;92.55;101037.97;5052803;28;20043;-74
2023/06/29 08:38:32;;;;;;;6.18;5.40;;;;;;;23.81;92.15;101033.00;5070871;28;20029;-75
2023/06/29 08:40:59;;;;;;;6.45;5.40;;;;;;;23.73;92.51;101031.66;5068647;28;20033;-72
2023/06/29 08:43:24;;;;;;;6.05;5.45;;;;;;;23.73;92.66;101042.66;5052502;28;20048;-73
2023/06/29 08:45:50;;;;;;;8.77;5.38;;;;;;;23.76;92.66;101036.59;5045222;28;20059;-73
2023/06/29 08:48:17;;;;;;;7.68;5.32;;;;;;;23.82;92.31;101029.97;5025225;28;20029;-72
2023/06/29 08:50:52;;;;;;;6.85;5.05;;;;;;;23.99;91.96;101037.03;5074010;28;20029;-72
2023/06/29 08:53:19;;;;;;;7.47;5.63;;;;;;;24.11;91.34;101032.03;5054604;28;20025;-71
2023/06/29 08:55:45;;;;;;;8.30;5.72;;;;;;;24.32;90.72;101036.28;5035655;28;20079;-71
2023/06/29 08:58:11;;;;;;;5.90;5.18;;;;;;;24.39;89.37;101031.25;5053056;28;20052;-75
2023/06/29 09:00:37;;;;;;;6.03;5.25;;;;;;;24.44;89.44;101029.63;5038088;28;20032;-71
2023/06/29 09:03:03;;;;;;;6.78;6.07;;;;;;;24.48;88.83;101037.03;5037331;28;20029;-71
2023/06/29 09:05:29;;;;;;;7.20;5.45;;;;;;;24.63;88.37;101025.06;5037000;28;20036;-70
2023/06/29 09:07:56;;;;;;;6.88;5.20;;;;;;;24.85;87.57;101036.44;5056912;28;20387;-71
2023/06/29 09:10:22;;;;;;;6.85;5.10;;;;;;;25.08;86.77;101039.53;5055478;28;20029;-71
2023/06/29 09:12:49;;;;;;;7.30;5.25;;;;;;;25.23;86.40;101035.81;5057226;28;20036;-71
2023/06/29 09:15:16;;;;;;;5.82;5.20;;;;;;;25.43;85.27;101038.34;5057320;28;20067;-72
2023/06/29 09:17:47;;;;;;;7.25;5.68;;;;;;;25.39;84.69;101045.53;5050157;28;20566;-71
2023/06/29 09:20:15;;;;;;;5.80;4.50;;;;;;;25.46;84.27;101040.53;5083319;28;20029;-70
2023/06/29 09:22:42;;;;;;;5.18;4.60;;;;;;;25.55;83.69;101032.41;5046488;28;20021;-71
2023/06/29 09:25:09;;;;;;;6.03;4.88;;;;;;;25.45;83.32;101035.28;5046970;28;20092;-71
2023/06/29 09:27:36;;;;;;;6.30;5.35;;;;;;;25.37;82.78;101025.75;5043067;28;20035;-70
2023/06/29 09:30:03;;;;;;;7.20;5.20;;;;;;;25.42;83.26;101038.63;5044173;28;20052;-70
2023/06/29 09:32:29;;;;;;;6.38;4.90;;;;;;;25.41;83.13;101034.25;5064477;28;20033;-71
2023/06/29 09:34:55;;;;;;;6.53;5.00;;;;;;;25.32;82.44;101034.06;5042600;28;20029;-70
2023/06/29 09:37:20;;;;;;;6.10;5.00;;;;;;;25.07;83.29;101021.38;5060330;28;20036;-71
2023/06/29 09:40:01;;;;;;;5.55;4.93;;;;;;;25.03;83.02;101026.63;5075708;28;20047;-70
2023/06/29 09:42:29;;;;;;;5.93;4.97;;;;;;;25.13;83.46;101033.16;5059662;28;20043;-71
2023/06/29 09:45:04;;;;;;;5.88;5.22;;;;;;;25.21;82.53;101038.03;5056047;28;20083;-70
2023/06/29 09:47:30;;;;;;;5.60;5.00;;;;;;;24.99;83.18;101021.97;5040179;28;20032;-71
2023/06/29 09:49:56;;;;;;;7.35;5.65;;;;;;;25.02;83.01;101035.16;5039944;28;20092;-70
2023/06/29 09:52:21;;;;;;;6.40;5.28;;;;;;;24.93;83.35;101023.13;5039655;28;20052;-70
2023/06/29 09:54:49;;;;;;;6.38;5.70;;;;;;;24.94;83.38;101035.81;5057375;28;20490;-71
2023/06/29 09:57:15;;;;;;;9.80;5.72;;;;;;;24.98;82.99;101025.84;5039610;28;20060;-71
2023/06/29 09:59:44;;;;;;;7.18;6.15;;;;;;;24.92;82.91;101032.53;5057253;28;20040;-71
2023/06/29 10:02:10;;;;;;;7.07;5.25;;;;;;;24.93;83.25;101034.16;5057401;28;20438;-70
2023/06/29 10:04:41;;;;;;;6.18;5.38;;;;;;;25.04;83.36;101032.97;5040008;28;20032;-71
2023/06/29 10:07:15;;;;;;;8.15;6.07;;;;;;;25.16;82.53;101029.81;5057674;28;20039;-70
2023/06/29 10:09:45;;;;;;;6.63;5.88;;;;;;;25.23;81.71;101024.78;5054937;28;20094;-70
2023/06/29 10:12:12;;;;;;;6.32;5.50;;;;;;;25.25;81.47;101026.13;5038821;28;20084;-70
2023/06/29 10:14:41;;;;;;;7.93;6.18;;;;;;;25.30;81.42;101022.53;5072556;28;20052;-70
2023/06/29 10:17:09;;;;;;;6.20;4.93;;;;;;;25.07;81.50;101016.69;5056880;28;20098;-70
2023/06/29 10:19:37;;;;;;;6.95;5.47;;;;;;;24.90;82.34;101024.56;5021713;28;20043;-70
2023/06/29 10:22:07;;;;;;;6.82;5.25;;;;;;;24.75;82.94;101024.69;5019156;28;20485;-71
2023/06/29 10:24:39;;;;;;;6.65;5.40;;;;;;;24.68;82.71;101018.72;5018814;28;20031;-71
2023/06/29 10:27:06;;;;;;;6.45;5.28;;;;;;;24.58;83.02;101008.59;5048970;28;20156;-71
2023/06/29 10:29:44;;;;;;;6.32;5.28;;;;;;;24.92;82.53;101019.56;5054314;28;20854;-71
2023/06/29 10:32:28;;;;;;;6.85;5.60;;;;;;;25.02;82.21;101018.66;5022976;28;20025;-70
2023/06/29 10:35:10;;;;;;;6.50;5.20;;;;;;;25.25;81.07;101023.38;5062791;28;20488;-70
2023/06/29 10:37:40;;;;;;;6.55;5.07;;;;;;;25.43;79.95;101023.72;5045073;28;20032;-71
2023/06/29 10:40:16;;;;;;;6.60;5.07;;;;;;;25.49;79.12;101019.81;5045812;28;20029;-70
2023/06/29 10:42:42;;;;;;;6.20;4.93;;;;;;;25.48;78.39;101013.47;5042958;28;20190;-71
2023/06/29 10:45:20;;;;;;;5.65;5.00;;;;;;;25.37;78.74;101008.41;5060324;28;20462;-71
2023/06/29 10:47:59;;;;;;;4.93;4.35;;;;;;;25.61;78.81;101011.94;5042939;28;20462;-71
2023/06/29 10:50:28;;;;;;;5.35;4.60;;;;;;;25.95;78.41;101002.69;5043137;28;20052;-70
2023/06/29 10:52:58;;;;;;;5.63;4.13;;;;;;;25.99;77.92;101006.50;5043026;28;20028;-71
2023/06/29 10:55:25;;;;;;;6.47;4.78;;;;;;;25.90;77.50;101005.56;5043272;28;20078;-71
2023/06/29 10:57:54;;;;;;;5.40;4.43;;;;;;;26.00;77.26;101010.91;5043091;28;20035;-70
2023/06/29 11:00:21;;;;;;;5.30;4.55;;;;;;;26.17;76.86;100989.13;5042804;28;20051;-71
2023/06/29 11:02:48;;;;;;;6.75;4.95;;;;;;;26.41;76.53;100994.53;5060264;28;20491;-70
2023/06/29 11:05:15;;;;;;;8.35;4.65;;;;;;;26.53;74.78;101002.41;5061054;28;20028;-71
2023/06/29 11:07:45;;;;;;;5.28;4.18;;;;;;;26.39;75.25;100999.56;5075913;28;20032;-70
2023/06/29 11:10:11;;;;;;;4.80;4.30;;;;;;;26.30;74.41;100990.31;5043306;28;20024;-71
2023/06/29 11:12:37;;;;;;;5.40;4.90;;;;;;;26.28;74.33;100997.25;5042323;28;20128;-70
2023/06/29 11:15:08;;;;;;;5.93;4.57;;;;;;;26.23;74.99;100995.41;5042367;28;20021;-70
2023/06/29 11:17:34;;;;;;;6.10;4.30;;;;;;;26.18;75.17;100995.47;5060083;28;20032;-70
2023/06/29 11:19:59;;;;;;;4.82;4.18;;;;;;;26.04;74.71;100992.66;5059167;28;20037;-70